Time;durP1;ratioP1;P1;durP2;ratioP2;P2;SDS_P1;SDS_P2;PMS_P1;PMS_P2;Temp;Humidity;BMP_temperature;BMP_pressure;BME280_temperature;BME280_humidity;BME280_pressure;Samples;Min_cycle;Max_cycle;Signal;HPM_P1;HPM_P2
2022/04/23 00:00:00;;;;;;;9.40;7.70;;;;;;;11.12;62.97;100188.94;1684631;82;21514;-75
2022/04/23 00:02:29;;;;;;;9.00;7.77;;;;;;;11.08;62.86;100184.66;1669600;84;21077;-76
2022/04/23 00:04:57;;;;;;;8.00;6.90;;;;;;;11.07;62.77;100185.75;1668237;84;21733;-77
2022/04/23 00:07:28;;;;;;;9.07;8.00;;;;;;;11.05;62.71;100187.88;1663755;84;21365;-78
2022/04/23 00:09:56;;;;;;;8.55;7.28;;;;;;;11.02;62.65;100195.09;1682974;83;21318;-78
2022/04/23 00:12:23;;;;;;;8.10;6.97;;;;;;;11.01;62.75;100188.95;1657470;84;21121;-77
2022/04/23 00:14:50;;;;;;;8.93;7.35;;;;;;;10.99;62.90;100188.94;1680167;83;21081;-75
2022/04/23 00:17:19;;;;;;;9.43;7.58;;;;;;;10.98;63.16;100192.70;1679399;83;21034;-79
2022/04/23 00:19:47;;;;;;;9.35;8.00;;;;;;;10.95;63.36;100191.89;1681614;83;21081;-77
2022/04/23 00:22:17;;;;;;;10.05;7.83;;;;;;;10.91;63.46;100174.27;1688378;83;21480;-76
2022/04/23 00:24:46;;;;;;;7.85;7.05;;;;;;;10.86;63.57;100170.27;1675768;83;21527;-77
2022/04/23 00:27:14;;;;;;;9.28;7.40;;;;;;;10.80;63.75;100178.81;1699320;83;21041;-78
2022/04/23 00:29:43;;;;;;;9.35;7.47;;;;;;;10.75;63.91;100175.33;1668265;86;21086;-77
2022/04/23 00:32:10;;;;;;;8.50;6.95;;;;;;;10.69;64.11;100169.18;1682945;83;21103;-76
2022/04/23 00:34:39;;;;;;;8.38;6.83;;;;;;;10.67;64.10;100171.88;1684433;83;21637;-79
2022/04/23 00:37:07;;;;;;;9.03;6.53;;;;;;;10.64;64.08;100171.86;1692125;83;21031;-79
2022/04/23 00:39:34;;;;;;;8.80;6.87;;;;;;;10.61;64.10;100169.72;1680855;83;21560;-76
2022/04/23 00:42:08;;;;;;;9.20;7.00;;;;;;;10.59;64.15;100169.18;1673721;85;21272;-75
2022/04/23 00:44:34;;;;;;;9.28;6.90;;;;;;;10.56;64.28;100166.53;1673658;84;21114;-76
2022/04/23 00:47:01;;;;;;;8.13;6.28;;;;;;;10.54;64.46;100156.64;1675780;85;21263;-77
2022/04/23 00:49:30;;;;;;;7.72;6.55;;;;;;;10.52;64.58;100156.09;1693779;82;21140;-77
2022/04/23 00:51:57;;;;;;;8.57;6.37;;;;;;;10.51;64.69;100153.16;1685512;83;21671;-74
2022/04/23 00:54:25;;;;;;;7.95;6.10;;;;;;;10.49;64.74;100155.28;1644067;84;21583;-74
2022/04/23 00:56:53;;;;;;;7.95;6.12;;;;;;;10.49;64.79;100159.29;1658263;84;21680;-77
2022/04/23 00:59:20;;;;;;;7.55;6.35;;;;;;;10.50;64.86;100153.44;1685669;83;21749;-75
2022/04/23 01:01:53;;;;;;;8.78;6.25;;;;;;;10.44;64.95;100153.96;1684801;83;20968;-76
2022/04/23 01:04:20;;;;;;;7.28;6.25;;;;;;;10.42;65.00;100150.74;1686765;83;21148;-76
2022/04/23 01:06:51;;;;;;;8.08;6.15;;;;;;;10.43;64.97;100149.70;1689192;82;21057;-76
2022/04/23 01:09:18;;;;;;;6.87;6.17;;;;;;;10.44;65.06;100145.95;1665788;84;21041;-75
2022/04/23 01:11:47;;;;;;;6.87;5.60;;;;;;;10.40;65.19;100142.22;1686314;83;21140;-76
2022/04/23 01:14:18;;;;;;;6.95;6.25;;;;;;;10.39;65.51;100141.92;1682843;83;21023;-78
2022/04/23 01:16:44;;;;;;;9.23;6.53;;;;;;;10.33;65.85;100134.98;1681291;83;21116;-76
2022/04/23 01:19:12;;;;;;;7.12;6.10;;;;;;;10.25;66.30;100133.61;1655827;84;21063;-76
2022/04/23 01:21:40;;;;;;;8.35;6.80;;;;;;;10.23;66.63;100135.77;1683666;83;21146;-78
2022/04/23 01:24:07;;;;;;;6.55;5.87;;;;;;;10.19;66.87;100127.20;1657245;85;21579;-76
2022/04/23 01:26:34;;;;;;;7.85;6.17;;;;;;;10.12;67.03;100129.33;1682688;83;21051;-78
2022/04/23 01:29:04;;;;;;;6.85;5.50;;;;;;;10.04;67.25;100118.11;1664658;84;21024;-76
2022/04/23 01:31:32;;;;;;;5.65;5.05;;;;;;;9.99;67.30;100125.29;1687550;83;20980;-76
2022/04/23 01:34:00;;;;;;;6.42;5.72;;;;;;;9.98;67.37;100131.70;1665924;84;21059;-77
2022/04/23 01:36:27;;;;;;;7.97;5.75;;;;;;;9.96;67.37;100129.81;1695124;82;21230;-79
2022/04/23 01:38:54;;;;;;;6.55;5.75;;;;;;;9.95;67.40;100134.89;1695082;82;21095;-74
2022/04/23 01:41:21;;;;;;;6.22;5.60;;;;;;;9.94;67.44;100127.96;1671117;84;21086;-77
2022/04/23 01:43:50;;;;;;;5.97;5.22;;;;;;;9.91;67.48;100123.95;1702900;83;21087;-78
2022/04/23 01:46:17;;;;;;;6.45;5.60;;;;;;;9.93;67.56;100130.34;1650384;84;21155;-75
2022/04/23 01:48:45;;;;;;;9.43;5.58;;;;;;;9.90;67.58;100130.86;1678447;83;21599;-76
2022/04/23 01:51:14;;;;;;;6.03;5.25;;;;;;;9.90;67.64;100134.86;1694087;83;21605;-76
2022/04/23 01:53:41;;;;;;;6.25;5.55;;;;;;;9.90;67.60;100137.53;1691290;83;21086;-76
2022/04/23 01:56:08;;;;;;;6.95;5.55;;;;;;;9.90;67.58;100136.20;1686065;83;21099;-77
2022/04/23 01:58:37;;;;;;;7.40;6.05;;;;;;;9.89;67.53;100126.06;1689881;83;21067;-76
2022/04/23 02:01:05;;;;;;;7.53;5.58;;;;;;;9.88;67.61;100129.80;1686967;83;22133;-74
2022/04/23 02:03:34;;;;;;;8.23;6.10;;;;;;;9.85;67.78;100128.45;1689841;83;21086;-74
2022/04/23 02:06:01;;;;;;;6.42;4.92;;;;;;;9.78;68.04;100118.57;1684663;83;22245;-75
2022/04/23 02:08:29;;;;;;;6.58;5.15;;;;;;;9.75;68.45;100124.96;1657678;83;21073;-76
2022/04/23 02:10:57;;;;;;;6.80;5.05;;;;;;;9.70;68.77;100120.93;1664852;84;21148;-75
2022/04/23 02:13:26;;;;;;;6.83;5.85;;;;;;;9.63;69.19;100109.97;1685590;82;21355;-74
2022/04/23 02:15:53;;;;;;;6.58;5.37;;;;;;;9.57;69.54;100108.34;1688635;82;21546;-75
2022/04/23 02:18:22;;;;;;;7.50;5.50;;;;;;;9.52;70.05;100109.67;1702990;82;21149;-75
2022/04/23 02:20:50;;;;;;;6.50;5.72;;;;;;;9.44;70.49;100111.49;1705527;82;21088;-75
2022/04/23 02:23:18;;;;;;;7.50;5.87;;;;;;;9.40;70.80;100120.55;1702394;83;21097;-75
2022/04/23 02:25:45;;;;;;;6.80;5.45;;;;;;;9.41;71.04;100120.03;1702551;83;21248;-74
2022/04/23 02:28:13;;;;;;;7.67;6.17;;;;;;;9.38;71.31;100127.22;1704648;82;21023;-73
2022/04/23 02:30:41;;;;;;;7.15;6.05;;;;;;;9.31;71.52;100116.79;1706322;83;20948;-74
2022/04/23 02:33:09;;;;;;;5.72;4.95;;;;;;;9.31;71.73;100122.63;1710358;82;21027;-75
2022/04/23 02:35:36;;;;;;;7.50;5.50;;;;;;;9.30;72.03;100123.70;1703091;82;21043;-75
2022/04/23 02:38:04;;;;;;;6.80;5.58;;;;;;;9.23;72.08;100123.13;1701513;82;21452;-76
2022/04/23 02:40:32;;;;;;;6.20;5.40;;;;;;;9.18;72.21;100117.76;1701735;82;21063;-75
2022/04/23 02:43:00;;;;;;;6.58;5.40;;;;;;;9.16;72.33;100128.16;1703107;82;21003;-75
2022/04/23 02:45:27;;;;;;;6.50;5.30;;;;;;;9.16;72.37;100125.48;1702039;82;21082;-74
2022/04/23 02:47:56;;;;;;;6.05;4.80;;;;;;;9.16;72.39;100121.49;1702770;84;21077;-75
2022/04/23 02:50:37;;;;;;;6.03;5.20;;;;;;;9.14;72.37;100120.14;1716579;82;21030;-75
2022/04/23 02:53:07;;;;;;;5.85;4.83;;;;;;;9.09;72.43;100114.80;1697344;83;21058;-75
2022/04/23 02:55:35;;;;;;;6.75;4.70;;;;;;;9.02;72.65;100102.23;1689226;82;21617;-76
2022/04/23 02:58:09;;;;;;;6.15;4.80;;;;;;;8.99;72.76;100107.55;1692869;82;20976;-75
2022/04/23 03:00:42;;;;;;;5.55;4.65;;;;;;;8.99;72.74;100102.75;1686598;83;21085;-76
2022/04/23 03:03:08;;;;;;;5.78;4.78;;;;;;;9.00;72.79;100114.47;1681358;83;21790;-75
2022/04/23 03:05:35;;;;;;;6.25;4.70;;;;;;;9.04;72.73;100120.08;1694129;83;21628;-74
2022/04/23 03:08:04;;;;;;;7.70;5.00;;;;;;;9.07;72.62;100123.03;1680551;83;20988;-77
2022/04/23 03:10:33;;;;;;;7.10;5.25;;;;;;;9.11;72.54;100122.81;1663716;84;20984;-73
2022/04/23 03:13:01;;;;;;;6.37;5.35;;;;;;;9.14;72.53;100125.47;1654645;85;21700;-74
2022/04/23 03:15:28;;;;;;;8.18;5.30;;;;;;;9.13;72.53;100119.34;1686098;83;21661;-74
2022/04/23 03:18:11;;;;;;;7.62;5.62;;;;;;;9.14;72.58;100122.80;1657497;84;21137;-74
2022/04/23 03:20:41;;;;;;;7.00;5.37;;;;;;;9.09;72.68;100124.92;1693319;83;21069;-74
2022/04/23 03:23:09;;;;;;;7.30;5.50;;;;;;;9.08;72.82;100124.66;1688338;83;21665;-73
2022/04/23 03:25:36;;;;;;;7.28;5.58;;;;;;;9.04;72.99;100112.09;1657785;84;21079;-73
2022/04/23 03:28:05;;;;;;;7.37;5.80;;;;;;;8.97;73.19;100114.18;1664415;84;21145;-74
2022/04/23 03:30:33;;;;;;;6.47;5.75;;;;;;;8.91;73.47;100122.13;1664446;84;21016;-74
2022/04/23 03:33:01;;;;;;;7.10;5.83;;;;;;;8.87;73.70;100115.71;1684560;82;21424;-73
2022/04/23 03:35:28;;;;;;;6.58;5.28;;;;;;;8.87;73.87;100125.57;1687773;83;20989;-74
2022/04/23 03:37:57;;;;;;;8.25;6.28;;;;;;;8.89;74.05;100122.93;1664656;84;21068;-73
2022/04/23 03:40:26;;;;;;;7.35;6.03;;;;;;;8.91;74.11;100127.98;1606956;86;21510;-74
2022/04/23 03:42:53;;;;;;;8.13;6.10;;;;;;;8.96;74.19;100125.37;1658182;84;21087;-74
2022/04/23 03:45:23;;;;;;;8.53;5.62;;;;;;;8.99;74.23;100120.06;1665327;84;21159;-74
2022/04/23 03:47:52;;;;;;;7.60;6.00;;;;;;;9.00;74.27;100118.46;1654556;84;20992;-75
2022/04/23 03:50:20;;;;;;;7.85;6.25;;;;;;;8.98;74.37;100115.24;1668907;84;21117;-73
2022/04/23 03:52:49;;;;;;;7.25;5.78;;;;;;;8.96;74.47;100123.23;1696019;84;21141;-73
2022/04/23 03:55:18;;;;;;;8.18;6.35;;;;;;;8.96;74.61;100115.25;1688810;83;21127;-74
2022/04/23 03:57:50;;;;;;;8.73;6.50;;;;;;;8.93;74.82;100119.22;1688666;83;21098;-75
2022/04/23 04:00:22;;;;;;;7.58;6.15;;;;;;;8.90;74.95;100117.06;1686484;83;21749;-74
2022/04/23 04:02:53;;;;;;;7.85;6.40;;;;;;;8.91;75.06;100122.66;1633496;86;21098;-74
2022/04/23 04:05:22;;;;;;;;;;;;;;;8.92;75.18;100116.30;1636010;83;21043;-73
2022/04/23 04:07:49;;;;;;;7.95;6.03;;;;;;;8.90;75.30;100118.41;1685966;83;20686;-75
2022/04/23 04:10:20;;;;;;;7.22;6.22;;;;;;;8.84;75.45;100116.22;1688058;83;21043;-74
2022/04/23 04:12:52;;;;;;;;;;;;;;;8.82;75.64;100117.56;1686907;82;21082;-73
2022/04/23 04:15:24;;;;;;;8.00;6.70;;;;;;;8.79;75.75;100116.20;1688635;83;21240;-72
2022/04/23 04:17:54;;;;;;;8.85;6.55;;;;;;;8.80;75.88;100124.98;1656962;84;21185;-74
2022/04/23 04:20:22;;;;;;;9.35;7.08;;;;;;;8.78;75.93;100121.23;1683208;83;21627;-73
2022/04/23 04:22:50;;;;;;;8.50;6.58;;;;;;;8.80;76.00;100114.34;1654883;84;21161;-74
2022/04/23 04:25:17;;;;;;;8.70;6.72;;;;;;;8.81;76.06;100114.61;1662798;84;21049;-74
2022/04/23 04:27:46;;;;;;;8.10;6.85;;;;;;;8.80;76.21;100112.48;1686826;82;21046;-74
2022/04/23 04:30:13;;;;;;;7.67;6.60;;;;;;;8.78;76.30;100104.46;1689284;82;21363;-75
2022/04/23 04:32:42;;;;;;;8.25;6.80;;;;;;;8.76;76.39;100098.08;1688701;83;20969;-74
2022/04/23 04:35:10;;;;;;;9.18;7.35;;;;;;;8.77;76.45;100102.33;1664263;84;21113;-73
2022/04/23 04:37:39;;;;;;;8.88;7.15;;;;;;;8.74;76.57;100102.84;1664371;84;21546;-74
2022/04/23 04:40:09;;;;;;;8.28;6.97;;;;;;;8.75;76.75;100096.98;1656642;84;21169;-74
2022/04/23 04:42:37;;;;;;;9.10;6.65;;;;;;;8.74;76.84;100105.50;1688514;83;21259;-77
2022/04/23 04:45:07;;;;;;;8.80;6.50;;;;;;;8.75;76.98;100091.66;1686453;83;21067;-76
2022/04/23 04:47:36;;;;;;;7.65;6.55;;;;;;;8.76;77.06;100090.63;1689634;83;21057;-76
2022/04/23 04:50:04;;;;;;;7.40;6.10;;;;;;;8.76;77.19;100091.95;1687544;83;21171;-75
2022/04/23 04:52:31;;;;;;;8.58;6.50;;;;;;;8.82;77.24;100086.41;1689439;83;21082;-73
2022/04/23 04:54:59;;;;;;;9.60;6.87;;;;;;;8.86;77.25;100092.02;1685595;83;22519;-75
2022/04/23 04:57:26;;;;;;;8.68;6.00;;;;;;;8.91;77.28;100091.50;1692232;82;21475;-75
2022/04/23 04:59:54;;;;;;;8.45;6.10;;;;;;;8.97;77.28;100090.21;1677812;84;21099;-75
2022/04/23 05:02:22;;;;;;;10.03;7.78;;;;;;;9.03;77.21;100085.19;1696113;83;21070;-73
2022/04/23 05:04:50;;;;;;;7.72;6.87;;;;;;;9.08;77.03;100083.87;1689174;83;21026;-74
2022/04/23 05:07:17;;;;;;;8.23;6.80;;;;;;;9.16;76.97;100084.72;1684458;83;22013;-74
2022/04/23 05:09:46;;;;;;;7.28;6.20;;;;;;;9.26;76.86;100088.77;1688838;83;20971;-74
2022/04/23 05:12:15;;;;;;;8.08;6.53;;;;;;;9.35;76.60;100085.09;1687104;83;21592;-74
2022/04/23 05:14:43;;;;;;;7.35;6.53;;;;;;;9.40;76.42;100087.76;1652280;85;21129;-74
2022/04/23 05:17:10;;;;;;;8.83;6.70;;;;;;;9.46;76.27;100081.39;1663316;84;21863;-74
2022/04/23 05:19:39;;;;;;;8.53;7.00;;;;;;;9.50;75.97;100081.67;1652358;85;22078;-73
2022/04/23 05:22:06;;;;;;;8.95;7.00;;;;;;;9.54;75.87;100085.41;1689848;82;21128;-74
2022/04/23 05:24:34;;;;;;;8.98;7.40;;;;;;;9.60;75.76;100077.16;1666694;85;21104;-78
2022/04/23 05:27:01;;;;;;;7.28;6.30;;;;;;;9.68;75.62;100087.08;1687615;82;21027;-73
2022/04/23 05:29:29;;;;;;;9.25;7.30;;;;;;;9.77;75.36;100076.14;1682155;83;21057;-77
2022/04/23 05:31:56;;;;;;;7.87;6.85;;;;;;;9.80;75.04;100083.63;1659135;84;21243;-77
2022/04/23 05:34:28;;;;;;;7.58;6.75;;;;;;;9.81;74.86;100079.91;1684618;83;21115;-76
2022/04/23 05:36:54;;;;;;;8.70;7.08;;;;;;;9.84;74.85;100077.52;1657642;84;21097;-77
2022/04/23 05:39:23;;;;;;;7.92;7.03;;;;;;;9.89;74.72;100075.38;1694173;84;21507;-75
2022/04/23 05:41:51;;;;;;;8.95;7.20;;;;;;;9.94;74.65;100062.06;1666598;84;21019;-76
2022/04/23 05:44:18;;;;;;;8.05;6.47;;;;;;;10.02;74.58;100067.40;1695828;83;21711;-76
2022/04/23 05:46:45;;;;;;;9.65;7.90;;;;;;;10.13;74.48;100058.86;1695467;83;21090;-76
2022/04/23 05:49:12;;;;;;;8.95;7.87;;;;;;;10.21;74.39;100055.69;1692639;83;21027;-76
2022/04/23 05:51:41;;;;;;;7.62;6.42;;;;;;;10.28;74.02;100055.70;1690547;83;21252;-77
2022/04/23 05:54:07;;;;;;;7.85;7.05;;;;;;;10.38;73.94;100046.89;1661341;84;21596;-75
2022/04/23 05:56:34;;;;;;;11.28;7.78;;;;;;;10.46;73.61;100049.05;1664750;84;21203;-75
2022/04/23 05:59:03;;;;;;;8.73;6.75;;;;;;;10.56;73.36;100047.69;1688229;83;21506;-75
2022/04/23 06:01:31;;;;;;;9.20;7.22;;;;;;;10.64;72.79;100049.55;1693244;83;21090;-75
2022/04/23 06:03:58;;;;;;;9.35;7.30;;;;;;;10.70;72.59;100042.59;1695344;83;21616;-76
2022/04/23 06:06:27;;;;;;;8.70;6.93;;;;;;;10.79;72.15;100047.66;1695983;83;21020;-76
2022/04/23 06:08:54;;;;;;;8.83;7.42;;;;;;;10.87;71.71;100036.94;1693385;82;21434;-76
2022/04/23 06:11:22;;;;;;;7.90;6.97;;;;;;;10.95;71.22;100040.92;1663747;83;21066;-78
2022/04/23 06:13:50;;;;;;;7.67;6.87;;;;;;;11.07;70.89;100037.95;1661397;84;21467;-74
2022/04/23 06:16:19;;;;;;;7.97;6.73;;;;;;;11.18;70.80;100032.28;1688457;83;21781;-76
2022/04/23 06:18:47;;;;;;;7.17;6.23;;;;;;;11.33;70.46;100030.64;1686653;83;21776;-78
2022/04/23 06:21:15;;;;;;;8.27;6.97;;;;;;;11.43;69.74;100026.03;1687703;83;21411;-79
2022/04/23 06:23:43;;;;;;;7.60;6.57;;;;;;;11.45;69.16;100026.56;1662660;84;21344;-76
2022/04/23 06:26:10;;;;;;;8.73;6.43;;;;;;;11.53;68.83;100029.19;1689156;82;21327;-76
2022/04/23 06:28:37;;;;;;;8.50;6.60;;;;;;;11.59;68.55;100029.97;1685818;83;21866;-77
2022/04/23 06:31:05;;;;;;;7.70;6.90;;;;;;;11.66;68.29;100025.91;1668235;84;21308;-74
2022/04/23 06:33:33;;;;;;;8.63;6.73;;;;;;;11.76;67.57;100016.22;1687453;83;21256;-78
2022/04/23 06:36:01;;;;;;;9.03;6.83;;;;;;;11.82;67.16;100025.28;1686399;82;21263;-74
2022/04/23 06:38:29;;;;;;;7.10;6.37;;;;;;;11.86;66.63;100025.00;1687614;83;21294;-76
2022/04/23 06:40:56;;;;;;;8.83;7.03;;;;;;;11.93;66.36;100018.80;1664526;84;21337;-80
2022/04/23 06:43:23;;;;;;;8.10;6.90;;;;;;;12.05;66.22;100021.13;1655764;85;21182;-74
2022/04/23 06:45:51;;;;;;;8.23;6.83;;;;;;;12.19;65.54;100026.64;1663526;84;21904;-74
2022/04/23 06:48:21;;;;;;;8.10;6.60;;;;;;;12.32;64.98;100027.33;1658214;84;22128;-75
2022/04/23 06:50:48;;;;;;;7.33;6.03;;;;;;;12.46;64.24;100017.30;1691340;82;21256;-79
2022/04/23 06:53:17;;;;;;;8.93;7.00;;;;;;;12.58;63.72;100014.50;1686679;82;21899;-77
2022/04/23 06:55:46;;;;;;;6.70;5.43;;;;;;;12.71;63.42;100011.69;1688433;83;22587;-75
2022/04/23 06:58:15;;;;;;;7.10;5.93;;;;;;;12.87;62.60;100011.78;1688971;83;21982;-74
2022/04/23 07:00:44;;;;;;;8.40;6.47;;;;;;;13.00;62.14;100006.83;1686150;82;21119;-75
2022/04/23 07:03:12;;;;;;;7.07;5.93;;;;;;;13.10;61.31;100006.70;1684710;83;21248;-78
2022/04/23 07:05:39;;;;;;;7.13;6.00;;;;;;;13.25;60.79;99990.98;1715336;82;22347;-77
2022/04/23 07:08:08;;;;;;;7.47;6.10;;;;;;;13.38;60.20;99993.73;1684924;82;21331;-77
2022/04/23 07:10:36;;;;;;;7.17;6.43;;;;;;;13.48;59.58;99994.14;1688064;82;21665;-74
2022/04/23 07:13:04;;;;;;;7.27;6.53;;;;;;;13.53;59.52;99991.95;1683225;82;21064;-76
2022/04/23 07:15:32;;;;;;;7.23;6.23;;;;;;;13.58;58.61;99985.16;1682468;83;21369;-75
2022/04/23 07:18:01;;;;;;;7.57;6.00;;;;;;;13.65;58.36;99996.87;1690071;83;21449;-76
2022/04/23 07:20:28;;;;;;;7.80;6.20;;;;;;;13.70;58.08;99988.75;1683163;83;21391;-75
2022/04/23 07:25:41;;;;;;;5.47;4.83;;;;;;;13.83;56.70;99987.47;1662096;84;21351;-76
2022/04/23 07:28:10;;;;;;;7.03;5.87;;;;;;;13.98;55.58;99979.70;1686622;83;21571;-78
2022/04/23 07:30:37;;;;;;;7.37;6.17;;;;;;;13.98;55.58;99979.70;1686709;83;21446;-74
2022/04/23 07:33:05;;;;;;;7.40;6.57;;;;;;;14.05;55.92;99983.38;1688910;83;21649;-75
2022/04/23 07:38:20;;;;;;;7.30;6.00;;;;;;;14.26;54.99;99973.08;1693381;83;21507;-76
2022/04/23 07:40:52;;;;;;;6.00;5.40;;;;;;;14.59;53.90;99963.09;1681766;83;21494;-78
2022/04/23 07:43:19;;;;;;;7.00;5.93;;;;;;;14.59;53.90;99963.09;1686431;83;21453;-76
2022/04/23 07:45:47;;;;;;;7.73;5.60;;;;;;;14.70;53.69;99965.83;1688196;83;21514;-74
2022/04/23 07:48:15;;;;;;;6.50;5.60;;;;;;;14.89;53.50;99959.01;1677114;83;21478;-74
2022/04/23 07:50:44;;;;;;;6.43;5.47;;;;;;;14.89;53.50;99959.01;1695577;83;21759;-75
2022/04/23 07:53:12;;;;;;;7.53;6.37;;;;;;;15.03;52.85;99956.30;1693400;83;21698;-75
2022/04/23 07:55:44;;;;;;;7.73;5.70;;;;;;;15.13;51.97;99946.66;1694012;83;21849;-74
2022/04/23 07:58:12;;;;;;;6.12;5.50;;;;;;;15.22;51.78;99938.13;1680099;83;21747;-75
2022/04/23 08:00:44;;;;;;;8.13;5.13;;;;;;;15.31;51.48;99937.43;1684049;83;21103;-76
2022/04/23 08:03:12;;;;;;;6.63;5.50;;;;;;;15.28;51.30;99934.00;1683220;83;21685;-80
2022/04/23 08:05:41;;;;;;;6.87;5.20;;;;;;;15.34;51.00;99937.61;1662821;84;22267;-76
2022/04/23 08:08:08;;;;;;;6.60;5.53;;;;;;;15.40;50.84;99938.28;1652101;84;21727;-77
2022/04/23 08:10:36;;;;;;;6.80;5.37;;;;;;;15.50;51.08;99939.41;1669211;85;22696;-76
2022/04/23 08:13:05;;;;;;;6.13;5.23;;;;;;;15.57;49.66;99929.02;1631160;85;21819;-80
2022/04/23 08:15:33;;;;;;;6.40;5.17;;;;;;;15.52;49.68;99938.55;1688491;83;21785;-80
2022/04/23 08:18:01;;;;;;;5.87;5.10;;;;;;;15.53;49.77;99937.98;1682767;83;22297;-76
2022/04/23 08:20:32;;;;;;;5.87;4.63;;;;;;;15.62;50.17;99938.85;1687677;84;21795;-75
2022/04/23 08:23:02;;;;;;;6.55;5.37;;;;;;;15.75;49.89;99930.51;1695913;83;21803;-78
2022/04/23 08:25:30;;;;;;;6.23;4.83;;;;;;;15.85;49.81;99918.13;1694747;83;21167;-77
2022/04/23 08:30:43;;;;;;;6.10;4.97;;;;;;;15.95;48.76;99911.94;1688378;83;21742;-77
2022/04/23 08:33:10;;;;;;;6.07;4.97;;;;;;;15.99;48.79;99909.97;1682644;83;21703;-76
2022/04/23 08:35:38;;;;;;;5.00;4.40;;;;;;;16.02;47.93;99904.77;1679117;83;21865;-74
2022/04/23 08:38:07;;;;;;;6.50;5.00;;;;;;;16.07;48.41;99907.34;1685242;83;21774;-77
2022/04/23 08:40:43;;;;;;;7.42;5.33;;;;;;;16.17;47.75;99891.45;1684695;83;21867;-74
2022/04/23 08:43:11;;;;;;;5.93;4.67;;;;;;;16.26;47.70;99900.38;1691650;83;21103;-79
2022/04/23 08:45:38;;;;;;;6.13;4.97;;;;;;;16.34;47.34;99889.38;1683709;83;21812;-76
2022/04/23 08:48:10;;;;;;;6.20;5.23;;;;;;;16.38;46.92;99893.04;1682878;83;21738;-76
2022/04/23 08:50:38;;;;;;;6.60;5.10;;;;;;;16.43;46.90;99890.77;1682659;83;22263;-75
2022/04/23 08:53:10;;;;;;;5.93;5.10;;;;;;;16.45;46.78;99878.55;1680564;83;21106;-76
2022/04/23 08:55:40;;;;;;;6.70;5.10;;;;;;;16.49;47.57;99881.44;1685351;83;21120;-78
2022/04/23 08:58:09;;;;;;;5.80;5.20;;;;;;;16.51;46.35;99886.73;1687038;83;21159;-81
2022/04/23 09:00:44;;;;;;;6.97;5.33;;;;;;;16.49;46.66;99874.14;1623801;85;37482;-77
2022/04/23 09:03:15;;;;;;;6.70;5.27;;;;;;;16.52;47.06;99880.27;1682021;84;21180;-79
2022/04/23 09:05:43;;;;;;;5.80;5.20;;;;;;;16.53;46.61;99879.70;1697758;84;21068;-78
2022/04/23 09:08:13;;;;;;;6.70;4.90;;;;;;;16.44;46.52;99871.58;1697446;84;21049;-76
2022/04/23 09:10:57;;;;;;;6.57;5.00;;;;;;;16.35;47.01;99874.80;1699016;84;21611;-77
2022/04/23 09:13:34;;;;;;;6.40;5.23;;;;;;;16.21;47.06;99860.09;1695851;84;21888;-76
2022/04/23 09:24:48;;;;;;;6.33;4.87;;;;;;;15.82;47.93;99852.22;1675378;83;21803;-75
2022/04/23 09:27:17;;;;;;;5.50;4.50;;;;;;;15.74;48.18;99842.21;1688030;83;21813;-76
2022/04/23 09:30:03;;;;;;;7.63;5.10;;;;;;;15.74;48.18;99842.21;1676962;83;21221;-78
2022/04/23 09:32:31;;;;;;;7.00;4.90;;;;;;;15.76;48.90;99841.89;1671030;85;21704;-78
2022/04/23 09:35:13;;;;;;;7.17;4.63;;;;;;;15.84;48.20;99831.17;1679651;83;22379;-75
2022/04/23 09:40:27;;;;;;;4.93;3.93;;;;;;;16.02;48.10;99828.55;1691992;83;21228;-75
2022/04/23 09:43:04;;;;;;;6.27;3.50;;;;;;;16.61;46.98;99823.64;1680120;83;21027;-75
2022/04/23 09:45:34;;;;;;;6.00;3.43;;;;;;;16.61;46.98;99823.64;1683804;83;20983;-75
2022/04/23 09:48:17;;;;;;;4.00;3.10;;;;;;;16.93;45.03;99813.00;1685459;83;21284;-76
2022/04/23 09:50:47;;;;;;;4.10;2.90;;;;;;;17.23;44.08;99811.80;1656557;84;21812;-77
2022/04/23 09:53:20;;;;;;;4.53;2.73;;;;;;;17.53;42.92;99806.73;1682392;83;21077;-77
2022/04/23 09:55:50;;;;;;;4.07;2.67;;;;;;;17.84;42.52;99802.25;1684928;83;21141;-77
2022/04/23 09:58:17;;;;;;;4.23;2.80;;;;;;;18.13;41.85;99797.41;1665064;84;22359;-76
2022/04/23 10:00:46;;;;;;;4.20;2.93;;;;;;;18.35;40.79;99798.48;1656452;84;21111;-75
2022/04/23 10:03:15;;;;;;;4.97;2.95;;;;;;;18.52;40.17;99789.47;1682737;83;21138;-75
2022/04/23 10:05:48;;;;;;;4.20;2.63;;;;;;;18.70;40.19;99782.03;1670989;85;21075;-74
2022/04/23 10:08:17;;;;;;;4.97;3.00;;;;;;;18.93;39.67;99781.16;1671175;85;21248;-76
2022/04/23 10:10:52;;;;;;;3.83;2.50;;;;;;;19.16;38.59;99781.59;1676892;84;21031;-74
2022/04/23 10:13:25;;;;;;;5.50;2.70;;;;;;;19.34;38.22;99773.51;1663184;85;21031;-77
2022/04/23 10:15:54;;;;;;;4.07;2.67;;;;;;;19.53;38.21;99770.85;1668325;86;20996;-77
2022/04/23 10:18:22;;;;;;;4.35;2.62;;;;;;;19.74;38.61;99774.28;1668256;86;21102;-75
2022/04/23 10:20:56;;;;;;;5.53;2.60;;;;;;;19.95;36.98;99769.35;1662971;83;21984;-77
2022/04/23 10:24:02;;;;;;;3.47;2.63;;;;;;;20.05;36.56;99763.47;1682939;83;21074;-77
2022/04/23 10:26:49;;;;;;;3.07;2.20;;;;;;;20.10;36.16;99760.52;1656594;84;21047;-74
2022/04/23 10:29:22;;;;;;;3.70;2.50;;;;;;;20.07;36.25;99759.30;1664332;84;21066;-78
2022/04/23 10:32:13;;;;;;;3.73;2.43;;;;;;;19.98;35.81;99754.55;1686700;83;21008;-78
2022/04/23 10:34:42;;;;;;;6.87;2.43;;;;;;;19.86;36.11;99746.41;1688702;82;21348;-76
2022/04/23 10:37:24;;;;;;;3.07;2.30;;;;;;;19.77;36.05;99758.71;1690497;83;21035;-76
2022/04/23 10:39:57;;;;;;;2.98;2.15;;;;;;;19.67;35.46;99753.17;1665156;84;21034;-77
2022/04/23 10:42:26;;;;;;;4.20;2.37;;;;;;;19.59;35.29;99754.61;1656589;85;21081;-77
2022/04/23 10:44:56;;;;;;;3.87;2.27;;;;;;;19.50;35.17;99748.50;1685816;83;21036;-77
2022/04/23 10:47:34;;;;;;;3.70;2.40;;;;;;;19.49;35.81;99749.06;1733993;82;21148;-76
2022/04/23 10:50:20;;;;;;;4.97;2.60;;;;;;;19.57;36.22;99743.31;1650931;85;21047;-75
2022/04/23 10:52:55;;;;;;;3.43;2.53;;;;;;;19.68;35.70;99734.45;1691274;83;21152;-78
2022/04/23 10:55:18;;;;;;;5.77;2.57;;;;;;;19.77;35.81;99726.19;1667529;85;21483;-78
2022/04/23 10:57:51;;;;;;;2.77;2.17;;;;;;;19.98;36.38;99730.73;1683383;84;21035;-75
2022/04/23 11:00:22;;;;;;;3.40;2.42;;;;;;;20.22;35.65;99719.05;1692856;83;21252;-79
2022/04/23 11:02:58;;;;;;;2.90;2.27;;;;;;;20.41;34.94;99717.10;1693087;83;28624;-75
2022/04/23 11:14:39;;;;;;;4.93;2.20;;;;;;;20.71;34.49;99712.95;1682760;83;21064;-79
2022/04/23 11:17:15;;;;;;;3.30;2.40;;;;;;;20.65;34.14;99706.19;1687411;83;21097;-77
2022/04/23 11:19:42;;;;;;;4.13;2.47;;;;;;;20.52;33.69;99707.36;1684763;83;21628;-76
2022/04/23 11:22:10;;;;;;;3.10;1.97;;;;;;;20.38;33.84;99703.66;1685866;83;21600;-75
2022/04/23 11:24:39;;;;;;;3.80;2.40;;;;;;;20.25;33.88;99708.31;1676769;83;21064;-78
2022/04/23 11:27:08;;;;;;;3.23;2.30;;;;;;;20.18;34.50;99706.75;1670655;86;21012;-77
2022/04/23 11:29:39;;;;;;;2.77;2.10;;;;;;;20.20;34.14;99699.05;1669595;86;21151;-75
2022/04/23 11:32:08;;;;;;;4.53;2.42;;;;;;;20.25;34.20;99695.33;1672853;84;21100;-76
2022/04/23 11:34:39;;;;;;;3.43;2.37;;;;;;;20.27;33.58;99687.08;1682750;83;21047;-77
2022/04/23 11:37:05;;;;;;;3.97;2.10;;;;;;;20.27;33.53;99689.79;1675283;83;20984;-74
2022/04/23 11:39:36;;;;;;;3.23;2.33;;;;;;;20.29;33.97;99679.38;1638352;86;21160;-78
2022/04/23 11:42:03;;;;;;;4.60;2.33;;;;;;;20.37;33.77;99681.73;1670402;83;21071;-76
2022/04/23 11:44:45;;;;;;;4.27;2.13;;;;;;;20.47;33.34;99675.05;1668448;86;21075;-78
2022/04/23 11:47:16;;;;;;;3.40;2.00;;;;;;;20.52;32.76;99670.74;1672954;83;21689;-76
2022/04/23 11:49:43;;;;;;;3.70;2.27;;;;;;;20.58;33.25;99658.52;1677843;83;21066;-77
2022/04/23 11:52:13;;;;;;;4.43;2.30;;;;;;;20.70;33.47;99658.47;1672873;83;21086;-75
2022/04/23 11:54:44;;;;;;;4.40;2.33;;;;;;;20.82;32.50;99642.10;1725546;83;20949;-76
2022/04/23 11:57:12;;;;;;;;;;;;;;;20.91;32.35;99643.31;1727945;83;21067;-77
2022/04/23 11:59:50;;;;;;;4.10;2.40;;;;;;;20.92;31.48;99607.45;1706691;83;20537;-75
2022/04/23 12:02:25;;;;;;;4.40;2.13;;;;;;;20.89;31.51;99627.14;1697649;84;20962;-76
2022/04/23 12:04:57;;;;;;;4.80;2.40;;;;;;;20.88;31.56;99623.64;1689372;83;21157;-76
2022/04/23 12:07:27;;;;;;;7.20;2.20;;;;;;;20.82;31.89;99625.81;1657446;85;21040;-77
2022/04/23 12:10:00;;;;;;;4.77;2.20;;;;;;;20.76;31.55;99623.16;1686101;83;21064;-76